sensor_id;sensor_type;location;lat;lon;timestamp;P1;durP1;ratioP1;P2;durP2;ratioP2
36931;SDS011;22847;42.654;23.370;2023-02-28T00:00:00;23.20;;;13.00;;
36931;SDS011;22847;42.654;23.370;2023-02-28T00:02:26;26.13;;;12.57;;
36931;SDS011;22847;42.654;23.370;2023-02-28T00:04:51;26.02;;;14.38;;
36931;SDS011;22847;42.654;23.370;2023-02-28T00:07:26;28.83;;;14.15;;
36931;SDS011;22847;42.654;23.370;2023-02-28T00:09:52;25.58;;;14.68;;
36931;SDS011;22847;42.654;23.370;2023-02-28T00:12:18;33.88;;;14.75;;
36931;SDS011;22847;42.654;23.370;2023-02-28T00:14:43;26.60;;;13.98;;
36931;SDS011;22847;42.654;23.370;2023-02-28T00:17:08;33.95;;;15.07;;
36931;SDS011;22847;42.654;23.370;2023-02-28T00:19:34;27.45;;;14.68;;
36931;SDS011;22847;42.654;23.370;2023-02-28T00:21:59;25.75;;;14.13;;
36931;SDS011;22847;42.654;23.370;2023-02-28T00:24:25;26.27;;;14.73;;
36931;SDS011;22847;42.654;23.370;2023-02-28T00:26:50;25.98;;;13.82;;
36931;SDS011;22847;42.654;23.370;2023-02-28T00:29:15;26.92;;;14.88;;
36931;SDS011;22847;42.654;23.370;2023-02-28T00:31:41;26.55;;;13.20;;
36931;SDS011;22847;42.654;23.370;2023-02-28T00:34:06;23.20;;;12.80;;
36931;SDS011;22847;42.654;23.370;2023-02-28T00:36:31;29.88;;;15.05;;
36931;SDS011;22847;42.654;23.370;2023-02-28T00:38:57;31.58;;;14.50;;
36931;SDS011;22847;42.654;23.370;2023-02-28T00:41:22;30.05;;;14.90;;
36931;SDS011;22847;42.654;23.370;2023-02-28T00:43:47;28.38;;;14.80;;
36931;SDS011;22847;42.654;23.370;2023-02-28T00:46:13;26.98;;;13.65;;
36931;SDS011;22847;42.654;23.370;2023-02-28T00:48:38;28.73;;;14.30;;
36931;SDS011;22847;42.654;23.370;2023-02-28T00:51:04;25.42;;;14.25;;
36931;SDS011;22847;42.654;23.370;2023-02-28T00:53:30;35.55;;;16.08;;
36931;SDS011;22847;42.654;23.370;2023-02-28T00:55:55;27.45;;;15.02;;
36931;SDS011;22847;42.654;23.370;2023-02-28T00:58:20;25.63;;;14.80;;
36931;SDS011;22847;42.654;23.370;2023-02-28T01:00:46;24.48;;;14.00;;
36931;SDS011;22847;42.654;23.370;2023-02-28T01:03:17;25.00;;;13.85;;
36931;SDS011;22847;42.654;23.370;2023-02-28T01:05:43;26.33;;;14.15;;
36931;SDS011;22847;42.654;23.370;2023-02-28T01:08:08;28.63;;;15.45;;
36931;SDS011;22847;42.654;23.370;2023-02-28T01:10:34;26.70;;;14.82;;
36931;SDS011;22847;42.654;23.370;2023-02-28T01:13:01;27.55;;;15.55;;
36931;SDS011;22847;42.654;23.370;2023-02-28T01:15:27;30.00;;;15.48;;
36931;SDS011;22847;42.654;23.370;2023-02-28T01:17:52;29.52;;;15.70;;
36931;SDS011;22847;42.654;23.370;2023-02-28T01:20:18;29.75;;;16.55;;
36931;SDS011;22847;42.654;23.370;2023-02-28T01:22:43;31.70;;;17.27;;
36931;SDS011;22847;42.654;23.370;2023-02-28T01:25:08;32.00;;;16.80;;
36931;SDS011;22847;42.654;23.370;2023-02-28T01:27:34;35.83;;;17.17;;
36931;SDS011;22847;42.654;23.370;2023-02-28T01:30:00;36.20;;;18.48;;
36931;SDS011;22847;42.654;23.370;2023-02-28T01:32:26;39.92;;;18.25;;
36931;SDS011;22847;42.654;23.370;2023-02-28T01:34:52;32.55;;;16.95;;
36931;SDS011;22847;42.654;23.370;2023-02-28T01:37:17;29.23;;;15.77;;
36931;SDS011;22847;42.654;23.370;2023-02-28T01:39:42;35.88;;;17.55;;
36931;SDS011;22847;42.654;23.370;2023-02-28T01:42:08;32.55;;;16.30;;
36931;SDS011;22847;42.654;23.370;2023-02-28T01:47:18;35.00;;;17.23;;
36931;SDS011;22847;42.654;23.370;2023-02-28T01:49:44;29.17;;;16.02;;
36931;SDS011;22847;42.654;23.370;2023-02-28T01:52:10;33.47;;;17.13;;
36931;SDS011;22847;42.654;23.370;2023-02-28T01:54:43;35.38;;;16.40;;
36931;SDS011;22847;42.654;23.370;2023-02-28T01:57:14;31.63;;;16.30;;
36931;SDS011;22847;42.654;23.370;2023-02-28T01:59:48;34.90;;;17.15;;
36931;SDS011;22847;42.654;23.370;2023-02-28T02:02:20;34.00;;;16.75;;
36931;SDS011;22847;42.654;23.370;2023-02-28T02:05:06;30.60;;;16.63;;
36931;SDS011;22847;42.654;23.370;2023-02-28T02:07:37;33.42;;;16.70;;
36931;SDS011;22847;42.654;23.370;2023-02-28T02:10:12;30.92;;;16.58;;
36931;SDS011;22847;42.654;23.370;2023-02-28T02:15:34;35.35;;;17.98;;
36931;SDS011;22847;42.654;23.370;2023-02-28T02:18:04;35.28;;;18.40;;
36931;SDS011;22847;42.654;23.370;2023-02-28T02:29:31;34.35;;;17.83;;
36931;SDS011;22847;42.654;23.370;2023-02-28T02:38:33;32.05;;;16.92;;
36931;SDS011;22847;42.654;23.370;2023-02-28T02:41:29;30.25;;;17.38;;
36931;SDS011;22847;42.654;23.370;2023-02-28T02:44:15;31.05;;;16.17;;
36931;SDS011;22847;42.654;23.370;2023-02-28T02:47:01;33.83;;;17.67;;
36931;SDS011;22847;42.654;23.370;2023-02-28T02:49:32;29.85;;;16.83;;
36931;SDS011;22847;42.654;23.370;2023-02-28T02:52:02;33.88;;;17.00;;
36931;SDS011;22847;42.654;23.370;2023-02-28T02:54:32;40.15;;;19.00;;
36931;SDS011;22847;42.654;23.370;2023-02-28T02:57:02;33.90;;;16.85;;
36931;SDS011;22847;42.654;23.370;2023-02-28T02:59:33;35.80;;;18.60;;
36931;SDS011;22847;42.654;23.370;2023-02-28T03:02:03;36.38;;;18.00;;
36931;SDS011;22847;42.654;23.370;2023-02-28T03:04:33;35.13;;;17.77;;
36931;SDS011;22847;42.654;23.370;2023-02-28T03:07:04;34.00;;;18.53;;
36931;SDS011;22847;42.654;23.370;2023-02-28T03:09:32;34.15;;;18.73;;
36931;SDS011;22847;42.654;23.370;2023-02-28T03:11:59;36.03;;;20.05;;
36931;SDS011;22847;42.654;23.370;2023-02-28T03:14:42;39.72;;;19.67;;
36931;SDS011;22847;42.654;23.370;2023-02-28T03:27:34;37.70;;;19.98;;
36931;SDS011;22847;42.654;23.370;2023-02-28T03:32:35;41.15;;;19.80;;
36931;SDS011;22847;42.654;23.370;2023-02-28T03:37:35;39.83;;;20.25;;
36931;SDS011;22847;42.654;23.370;2023-02-28T03:40:10;41.60;;;21.02;;
36931;SDS011;22847;42.654;23.370;2023-02-28T03:42:39;45.65;;;21.23;;
36931;SDS011;22847;42.654;23.370;2023-02-28T03:45:28;45.58;;;22.35;;
36931;SDS011;22847;42.654;23.370;2023-02-28T03:50:41;45.30;;;22.38;;
36931;SDS011;22847;42.654;23.370;2023-02-28T03:56:14;54.80;;;24.05;;
36931;SDS011;22847;42.654;23.370;2023-02-28T03:59:07;48.60;;;22.25;;
36931;SDS011;22847;42.654;23.370;2023-02-28T04:01:39;46.17;;;22.88;;
36931;SDS011;22847;42.654;23.370;2023-02-28T04:04:11;48.08;;;23.88;;
36931;SDS011;22847;42.654;23.370;2023-02-28T04:06:38;46.88;;;22.90;;
36931;SDS011;22847;42.654;23.370;2023-02-28T04:09:04;47.10;;;22.30;;
36931;SDS011;22847;42.654;23.370;2023-02-28T04:11:44;57.08;;;22.30;;
36931;SDS011;22847;42.654;23.370;2023-02-28T04:14:14;64.13;;;23.15;;
36931;SDS011;22847;42.654;23.370;2023-02-28T04:16:41;45.33;;;20.40;;
36931;SDS011;22847;42.654;23.370;2023-02-28T04:19:07;43.65;;;19.58;;
36931;SDS011;22847;42.654;23.370;2023-02-28T04:21:43;45.70;;;21.08;;
36931;SDS011;22847;42.654;23.370;2023-02-28T04:24:12;42.50;;;20.33;;
36931;SDS011;22847;42.654;23.370;2023-02-28T04:26:40;47.75;;;21.33;;
36931;SDS011;22847;42.654;23.370;2023-02-28T04:29:10;45.80;;;19.38;;
36931;SDS011;22847;42.654;23.370;2023-02-28T04:31:37;32.83;;;17.77;;
36931;SDS011;22847;42.654;23.370;2023-02-28T04:34:02;40.63;;;20.05;;
36931;SDS011;22847;42.654;23.370;2023-02-28T04:36:28;43.45;;;20.00;;
36931;SDS011;22847;42.654;23.370;2023-02-28T04:38:54;48.85;;;19.83;;
36931;SDS011;22847;42.654;23.370;2023-02-28T04:41:20;57.25;;;21.73;;
36931;SDS011;22847;42.654;23.370;2023-02-28T04:43:47;68.30;;;21.33;;
36931;SDS011;22847;42.654;23.370;2023-02-28T04:46:13;43.30;;;20.98;;
36931;SDS011;22847;42.654;23.370;2023-02-28T04:48:39;42.85;;;19.58;;
36931;SDS011;22847;42.654;23.370;2023-02-28T04:51:08;46.63;;;20.25;;
36931;SDS011;22847;42.654;23.370;2023-02-28T04:53:38;43.80;;;20.80;;
36931;SDS011;22847;42.654;23.370;2023-02-28T04:56:05;51.00;;;22.25;;
36931;SDS011;22847;42.654;23.370;2023-02-28T04:58:32;50.97;;;23.45;;
36931;SDS011;22847;42.654;23.370;2023-02-28T05:01:05;52.55;;;23.63;;
36931;SDS011;22847;42.654;23.370;2023-02-28T05:03:38;57.00;;;25.83;;
36931;SDS011;22847;42.654;23.370;2023-02-28T05:06:05;75.70;;;26.92;;
36931;SDS011;22847;42.654;23.370;2023-02-28T05:08:31;75.88;;;29.33;;
36931;SDS011;22847;42.654;23.370;2023-02-28T05:10:57;62.63;;;27.45;;
36931;SDS011;22847;42.654;23.370;2023-02-28T05:13:22;62.35;;;28.27;;
36931;SDS011;22847;42.654;23.370;2023-02-28T05:15:48;61.08;;;27.98;;
36931;SDS011;22847;42.654;23.370;2023-02-28T05:18:13;70.88;;;29.30;;
36931;SDS011;22847;42.654;23.370;2023-02-28T05:20:39;64.65;;;29.88;;
36931;SDS011;22847;42.654;23.370;2023-02-28T05:23:04;64.43;;;29.20;;
36931;SDS011;22847;42.654;23.370;2023-02-28T05:25:29;69.57;;;29.33;;
36931;SDS011;22847;42.654;23.370;2023-02-28T05:27:55;83.20;;;28.73;;
36931;SDS011;22847;42.654;23.370;2023-02-28T05:30:20;64.05;;;30.67;;
36931;SDS011;22847;42.654;23.370;2023-02-28T05:32:49;61.20;;;28.38;;
36931;SDS011;22847;42.654;23.370;2023-02-28T05:35:15;71.18;;;30.45;;
36931;SDS011;22847;42.654;23.370;2023-02-28T05:37:41;64.32;;;29.33;;
36931;SDS011;22847;42.654;23.370;2023-02-28T05:40:06;75.90;;;29.73;;
36931;SDS011;22847;42.654;23.370;2023-02-28T05:42:35;60.47;;;26.85;;
36931;SDS011;22847;42.654;23.370;2023-02-28T05:45:01;64.28;;;27.45;;
36931;SDS011;22847;42.654;23.370;2023-02-28T05:47:26;64.30;;;26.85;;
36931;SDS011;22847;42.654;23.370;2023-02-28T05:49:51;60.83;;;27.13;;
36931;SDS011;22847;42.654;23.370;2023-02-28T05:52:17;62.13;;;27.60;;
36931;SDS011;22847;42.654;23.370;2023-02-28T05:54:42;57.20;;;26.83;;
36931;SDS011;22847;42.654;23.370;2023-02-28T05:57:08;55.78;;;25.90;;
36931;SDS011;22847;42.654;23.370;2023-02-28T05:59:33;54.53;;;26.20;;
36931;SDS011;22847;42.654;23.370;2023-02-28T06:01:59;54.75;;;24.73;;
36931;SDS011;22847;42.654;23.370;2023-02-28T06:04:24;65.68;;;28.55;;
36931;SDS011;22847;42.654;23.370;2023-02-28T06:06:50;56.40;;;24.52;;
36931;SDS011;22847;42.654;23.370;2023-02-28T06:09:16;49.95;;;23.42;;
36931;SDS011;22847;42.654;23.370;2023-02-28T06:11:42;49.03;;;25.10;;
36931;SDS011;22847;42.654;23.370;2023-02-28T06:14:09;53.05;;;23.83;;
36931;SDS011;22847;42.654;23.370;2023-02-28T06:16:40;49.22;;;24.92;;
36931;SDS011;22847;42.654;23.370;2023-02-28T06:19:06;49.10;;;24.15;;
36931;SDS011;22847;42.654;23.370;2023-02-28T06:21:31;53.63;;;24.90;;
36931;SDS011;22847;42.654;23.370;2023-02-28T06:23:57;49.47;;;25.88;;
36931;SDS011;22847;42.654;23.370;2023-02-28T06:26:23;48.58;;;24.08;;
36931;SDS011;22847;42.654;23.370;2023-02-28T06:28:49;49.03;;;23.85;;
36931;SDS011;22847;42.654;23.370;2023-02-28T06:31:15;50.97;;;25.50;;
36931;SDS011;22847;42.654;23.370;2023-02-28T06:33:42;46.97;;;22.48;;
36931;SDS011;22847;42.654;23.370;2023-02-28T06:36:09;44.28;;;20.83;;
36931;SDS011;22847;42.654;23.370;2023-02-28T06:38:37;43.63;;;22.05;;
36931;SDS011;22847;42.654;23.370;2023-02-28T06:41:03;40.05;;;20.90;;
36931;SDS011;22847;42.654;23.370;2023-02-28T06:43:29;43.20;;;20.40;;
36931;SDS011;22847;42.654;23.370;2023-02-28T06:45:58;40.92;;;20.90;;
36931;SDS011;22847;42.654;23.370;2023-02-28T06:48:24;43.83;;;21.60;;
36931;SDS011;22847;42.654;23.370;2023-02-28T06:50:51;44.03;;;21.67;;
36931;SDS011;22847;42.654;23.370;2023-02-28T06:53:16;45.20;;;23.85;;
36931;SDS011;22847;42.654;23.370;2023-02-28T06:55:42;46.85;;;25.20;;
36931;SDS011;22847;42.654;23.370;2023-02-28T06:58:07;51.33;;;25.58;;
36931;SDS011;22847;42.654;23.370;2023-02-28T07:00:42;66.68;;;28.83;;
36931;SDS011;22847;42.654;23.370;2023-02-28T07:03:09;60.78;;;28.63;;
36931;SDS011;22847;42.654;23.370;2023-02-28T07:05:35;53.70;;;28.50;;
36931;SDS011;22847;42.654;23.370;2023-02-28T07:08:02;54.22;;;27.58;;
36931;SDS011;22847;42.654;23.370;2023-02-28T07:10:29;58.05;;;26.48;;
36931;SDS011;22847;42.654;23.370;2023-02-28T07:12:54;52.67;;;26.00;;
36931;SDS011;22847;42.654;23.370;2023-02-28T07:15:20;53.33;;;28.08;;
36931;SDS011;22847;42.654;23.370;2023-02-28T07:17:45;55.13;;;27.80;;
36931;SDS011;22847;42.654;23.370;2023-02-28T07:20:11;52.35;;;25.98;;
36931;SDS011;22847;42.654;23.370;2023-02-28T07:22:37;53.42;;;26.02;;
36931;SDS011;22847;42.654;23.370;2023-02-28T07:25:03;53.70;;;25.42;;
36931;SDS011;22847;42.654;23.370;2023-02-28T07:27:30;55.08;;;24.85;;
36931;SDS011;22847;42.654;23.370;2023-02-28T07:29:55;50.10;;;24.77;;
36931;SDS011;22847;42.654;23.370;2023-02-28T07:32:20;51.95;;;24.13;;
36931;SDS011;22847;42.654;23.370;2023-02-28T07:34:46;46.97;;;22.33;;
36931;SDS011;22847;42.654;23.370;2023-02-28T07:37:12;44.45;;;22.05;;
36931;SDS011;22847;42.654;23.370;2023-02-28T07:39:37;53.00;;;21.30;;
36931;SDS011;22847;42.654;23.370;2023-02-28T07:42:05;44.58;;;21.65;;
36931;SDS011;22847;42.654;23.370;2023-02-28T07:44:34;45.30;;;20.67;;
36931;SDS011;22847;42.654;23.370;2023-02-28T07:47:00;45.60;;;20.23;;
36931;SDS011;22847;42.654;23.370;2023-02-28T07:49:25;42.17;;;19.35;;
36931;SDS011;22847;42.654;23.370;2023-02-28T07:51:51;32.60;;;18.80;;
36931;SDS011;22847;42.654;23.370;2023-02-28T07:54:16;38.67;;;19.27;;
36931;SDS011;22847;42.654;23.370;2023-02-28T07:56:41;39.22;;;18.83;;
36931;SDS011;22847;42.654;23.370;2023-02-28T07:59:07;38.15;;;19.15;;
36931;SDS011;22847;42.654;23.370;2023-02-28T08:01:32;44.03;;;19.73;;
36931;SDS011;22847;42.654;23.370;2023-02-28T08:03:57;41.08;;;20.40;;
36931;SDS011;22847;42.654;23.370;2023-02-28T08:06:24;48.47;;;21.70;;
36931;SDS011;22847;42.654;23.370;2023-02-28T08:08:51;46.42;;;19.95;;
36931;SDS011;22847;42.654;23.370;2023-02-28T08:11:17;44.35;;;21.40;;
36931;SDS011;22847;42.654;23.370;2023-02-28T08:13:44;41.95;;;21.63;;
36931;SDS011;22847;42.654;23.370;2023-02-28T08:16:10;41.67;;;22.08;;
36931;SDS011;22847;42.654;23.370;2023-02-28T08:18:36;45.03;;;20.92;;
36931;SDS011;22847;42.654;23.370;2023-02-28T08:21:10;43.47;;;22.77;;
36931;SDS011;22847;42.654;23.370;2023-02-28T08:26:01;38.00;;;18.08;;
36931;SDS011;22847;42.654;23.370;2023-02-28T08:28:28;41.30;;;19.20;;
36931;SDS011;22847;42.654;23.370;2023-02-28T08:30:53;44.63;;;19.52;;
36931;SDS011;22847;42.654;23.370;2023-02-28T08:33:19;41.60;;;19.08;;
36931;SDS011;22847;42.654;23.370;2023-02-28T08:35:45;42.92;;;20.45;;
36931;SDS011;22847;42.654;23.370;2023-02-28T08:38:11;48.92;;;20.95;;
36931;SDS011;22847;42.654;23.370;2023-02-28T08:40:36;45.00;;;19.85;;
36931;SDS011;22847;42.654;23.370;2023-02-28T08:43:01;42.88;;;19.77;;
36931;SDS011;22847;42.654;23.370;2023-02-28T08:45:27;41.03;;;18.33;;
36931;SDS011;22847;42.654;23.370;2023-02-28T08:47:54;40.60;;;20.02;;
36931;SDS011;22847;42.654;23.370;2023-02-28T08:50:20;39.50;;;18.23;;
36931;SDS011;22847;42.654;23.370;2023-02-28T08:52:45;46.03;;;19.23;;
36931;SDS011;22847;42.654;23.370;2023-02-28T08:55:11;38.50;;;17.38;;
36931;SDS011;22847;42.654;23.370;2023-02-28T08:57:36;47.05;;;18.75;;
36931;SDS011;22847;42.654;23.370;2023-02-28T09:00:02;43.38;;;18.45;;
36931;SDS011;22847;42.654;23.370;2023-02-28T09:02:29;43.67;;;18.05;;
36931;SDS011;22847;42.654;23.370;2023-02-28T09:04:56;36.53;;;16.60;;
36931;SDS011;22847;42.654;23.370;2023-02-28T09:07:21;40.97;;;18.20;;
36931;SDS011;22847;42.654;23.370;2023-02-28T09:09:47;43.90;;;16.80;;
36931;SDS011;22847;42.654;23.370;2023-02-28T09:12:23;41.58;;;17.33;;
36931;SDS011;22847;42.654;23.370;2023-02-28T09:14:50;36.88;;;16.45;;
36931;SDS011;22847;42.654;23.370;2023-02-28T09:17:15;42.50;;;18.08;;
36931;SDS011;22847;42.654;23.370;2023-02-28T09:19:41;33.88;;;16.38;;
36931;SDS011;22847;42.654;23.370;2023-02-28T09:22:07;40.45;;;18.30;;
36931;SDS011;22847;42.654;23.370;2023-02-28T09:24:33;37.53;;;17.80;;
36931;SDS011;22847;42.654;23.370;2023-02-28T09:26:58;37.47;;;17.63;;
36931;SDS011;22847;42.654;23.370;2023-02-28T09:29:23;42.78;;;19.15;;
36931;SDS011;22847;42.654;23.370;2023-02-28T09:31:49;46.38;;;17.60;;
36931;SDS011;22847;42.654;23.370;2023-02-28T09:34:15;45.00;;;18.45;;
36931;SDS011;22847;42.654;23.370;2023-02-28T09:36:42;37.88;;;18.00;;
36931;SDS011;22847;42.654;23.370;2023-02-28T09:39:07;35.08;;;17.55;;
36931;SDS011;22847;42.654;23.370;2023-02-28T09:41:37;46.13;;;17.63;;
36931;SDS011;22847;42.654;23.370;2023-02-28T09:44:13;37.83;;;16.45;;
36931;SDS011;22847;42.654;23.370;2023-02-28T09:46:46;37.23;;;17.80;;
36931;SDS011;22847;42.654;23.370;2023-02-28T09:49:18;42.30;;;16.85;;
36931;SDS011;22847;42.654;23.370;2023-02-28T09:51:49;36.08;;;16.83;;
36931;SDS011;22847;42.654;23.370;2023-02-28T09:54:27;34.85;;;16.60;;
36931;SDS011;22847;42.654;23.370;2023-02-28T09:56:59;35.47;;;15.98;;
36931;SDS011;22847;42.654;23.370;2023-02-28T10:07:50;36.92;;;15.80;;
36931;SDS011;22847;42.654;23.370;2023-02-28T10:10:33;41.65;;;15.82;;
36931;SDS011;22847;42.654;23.370;2023-02-28T10:13:05;40.80;;;15.82;;
36931;SDS011;22847;42.654;23.370;2023-02-28T10:15:39;36.35;;;14.93;;
36931;SDS011;22847;42.654;23.370;2023-02-28T10:18:09;42.17;;;15.27;;
36931;SDS011;22847;42.654;23.370;2023-02-28T10:20:39;35.75;;;15.70;;
36931;SDS011;22847;42.654;23.370;2023-02-28T10:23:17;40.72;;;16.02;;
36931;SDS011;22847;42.654;23.370;2023-02-28T10:26:08;42.42;;;15.15;;
36931;SDS011;22847;42.654;23.370;2023-02-28T10:28:38;38.30;;;15.05;;
36931;SDS011;22847;42.654;23.370;2023-02-28T10:31:04;32.40;;;15.32;;
36931;SDS011;22847;42.654;23.370;2023-02-28T10:33:31;34.35;;;14.20;;
36931;SDS011;22847;42.654;23.370;2023-02-28T10:36:03;34.88;;;15.45;;
36931;SDS011;22847;42.654;23.370;2023-02-28T10:41:08;28.63;;;13.70;;
36931;SDS011;22847;42.654;23.370;2023-02-28T10:43:38;25.27;;;13.25;;
36931;SDS011;22847;42.654;23.370;2023-02-28T10:48:37;43.47;;;15.13;;
36931;SDS011;22847;42.654;23.370;2023-02-28T10:51:03;30.52;;;14.35;;
36931;SDS011;22847;42.654;23.370;2023-02-28T10:55:59;38.42;;;15.18;;
36931;SDS011;22847;42.654;23.370;2023-02-28T11:03:49;41.10;;;15.27;;
36931;SDS011;22847;42.654;23.370;2023-02-28T11:06:20;35.97;;;15.27;;
36931;SDS011;22847;42.654;23.370;2023-02-28T11:08:49;24.80;;;14.27;;
36931;SDS011;22847;42.654;23.370;2023-02-28T11:11:17;38.15;;;14.50;;
36931;SDS011;22847;42.654;23.370;2023-02-28T11:13:45;34.38;;;14.82;;
36931;SDS011;22847;42.654;23.370;2023-02-28T11:16:12;42.20;;;15.93;;
36931;SDS011;22847;42.654;23.370;2023-02-28T11:18:41;31.63;;;14.60;;
36931;SDS011;22847;42.654;23.370;2023-02-28T11:21:17;39.25;;;16.25;;
36931;SDS011;22847;42.654;23.370;2023-02-28T11:23:46;34.10;;;15.05;;
36931;SDS011;22847;42.654;23.370;2023-02-28T11:26:14;28.63;;;13.57;;
36931;SDS011;22847;42.654;23.370;2023-02-28T11:28:41;32.40;;;14.40;;
36931;SDS011;22847;42.654;23.370;2023-02-28T11:36:15;41.10;;;15.68;;
36931;SDS011;22847;42.654;23.370;2023-02-28T11:38:44;43.45;;;17.05;;
36931;SDS011;22847;42.654;23.370;2023-02-28T11:46:47;38.75;;;17.13;;
36931;SDS011;22847;42.654;23.370;2023-02-28T11:51:47;44.75;;;18.30;;
36931;SDS011;22847;42.654;23.370;2023-02-28T12:05:06;31.13;;;16.23;;
36931;SDS011;22847;42.654;23.370;2023-02-28T12:07:42;38.95;;;15.23;;
36931;SDS011;22847;42.654;23.370;2023-02-28T12:10:36;32.83;;;15.63;;
36931;SDS011;22847;42.654;23.370;2023-02-28T12:13:21;38.38;;;16.88;;
36931;SDS011;22847;42.654;23.370;2023-02-28T12:18:32;34.28;;;15.70;;
36931;SDS011;22847;42.654;23.370;2023-02-28T12:28:53;36.85;;;16.08;;
36931;SDS011;22847;42.654;23.370;2023-02-28T12:31:44;38.30;;;15.43;;
36931;SDS011;22847;42.654;23.370;2023-02-28T12:34:25;37.30;;;15.20;;
36931;SDS011;22847;42.654;23.370;2023-02-28T12:36:56;39.45;;;15.82;;
36931;SDS011;22847;42.654;23.370;2023-02-28T12:39:30;40.20;;;16.67;;
36931;SDS011;22847;42.654;23.370;2023-02-28T12:45:02;28.63;;;15.18;;
36931;SDS011;22847;42.654;23.370;2023-02-28T12:47:33;33.47;;;14.55;;
36931;SDS011;22847;42.654;23.370;2023-02-28T13:00:48;36.90;;;14.77;;
36931;SDS011;22847;42.654;23.370;2023-02-28T13:09:04;39.22;;;15.27;;
36931;SDS011;22847;42.654;23.370;2023-02-28T13:11:41;36.80;;;15.43;;
36931;SDS011;22847;42.654;23.370;2023-02-28T13:24:53;30.25;;;14.43;;
36931;SDS011;22847;42.654;23.370;2023-02-28T13:27:21;35.95;;;12.88;;
36931;SDS011;22847;42.654;23.370;2023-02-28T13:29:50;36.38;;;13.45;;
36931;SDS011;22847;42.654;23.370;2023-02-28T13:32:30;30.10;;;12.70;;
36931;SDS011;22847;42.654;23.370;2023-02-28T13:47:27;28.13;;;11.60;;
36931;SDS011;22847;42.654;23.370;2023-02-28T13:50:01;30.08;;;11.60;;
36931;SDS011;22847;42.654;23.370;2023-02-28T13:52:48;28.00;;;11.73;;
36931;SDS011;22847;42.654;23.370;2023-02-28T13:55:31;31.08;;;13.00;;
36931;SDS011;22847;42.654;23.370;2023-02-28T13:58:08;29.40;;;12.50;;
36931;SDS011;22847;42.654;23.370;2023-02-28T14:00:56;31.08;;;13.45;;
36931;SDS011;22847;42.654;23.370;2023-02-28T14:06:28;28.75;;;12.35;;
36931;SDS011;22847;42.654;23.370;2023-02-28T14:11:44;31.40;;;12.30;;
36931;SDS011;22847;42.654;23.370;2023-02-28T14:14:53;27.58;;;14.27;;
36931;SDS011;22847;42.654;23.370;2023-02-28T14:17:05;29.70;;;13.20;;
36931;SDS011;22847;42.654;23.370;2023-02-28T14:19:37;28.73;;;13.10;;
36931;SDS011;22847;42.654;23.370;2023-02-28T14:37:51;30.23;;;12.80;;
36931;SDS011;22847;42.654;23.370;2023-02-28T14:40:23;28.90;;;13.35;;
36931;SDS011;22847;42.654;23.370;2023-02-28T14:42:59;34.30;;;12.98;;
36931;SDS011;22847;42.654;23.370;2023-02-28T14:45:42;26.30;;;12.63;;
36931;SDS011;22847;42.654;23.370;2023-02-28T14:48:10;31.40;;;12.30;;
36931;SDS011;22847;42.654;23.370;2023-02-28T14:50:36;25.13;;;11.88;;
36931;SDS011;22847;42.654;23.370;2023-02-28T14:53:02;23.48;;;10.73;;
36931;SDS011;22847;42.654;23.370;2023-02-28T14:55:29;37.00;;;12.80;;
36931;SDS011;22847;42.654;23.370;2023-02-28T14:57:57;34.08;;;12.88;;
36931;SDS011;22847;42.654;23.370;2023-02-28T15:02:58;24.50;;;12.07;;
36931;SDS011;22847;42.654;23.370;2023-02-28T15:05:33;31.08;;;12.30;;
36931;SDS011;22847;42.654;23.370;2023-02-28T15:08:12;37.67;;;13.60;;
36931;SDS011;22847;42.654;23.370;2023-02-28T15:10:44;31.45;;;12.95;;
36931;SDS011;22847;42.654;23.370;2023-02-28T15:13:12;38.58;;;14.23;;
36931;SDS011;22847;42.654;23.370;2023-02-28T15:15:41;32.67;;;13.13;;
36931;SDS011;22847;42.654;23.370;2023-02-28T15:18:07;35.97;;;12.65;;
36931;SDS011;22847;42.654;23.370;2023-02-28T15:20:45;23.83;;;10.15;;
36931;SDS011;22847;42.654;23.370;2023-02-28T15:23:11;25.13;;;10.63;;
36931;SDS011;22847;42.654;23.370;2023-02-28T15:25:37;29.33;;;11.00;;
36931;SDS011;22847;42.654;23.370;2023-02-28T15:28:02;29.20;;;11.57;;
36931;SDS011;22847;42.654;23.370;2023-02-28T15:30:29;27.33;;;10.20;;
36931;SDS011;22847;42.654;23.370;2023-02-28T15:33:03;24.35;;;10.27;;
36931;SDS011;22847;42.654;23.370;2023-02-28T15:35:38;28.73;;;11.02;;
36931;SDS011;22847;42.654;23.370;2023-02-28T15:38:25;24.27;;;11.30;;
36931;SDS011;22847;42.654;23.370;2023-02-28T15:40:52;25.02;;;10.45;;
36931;SDS011;22847;42.654;23.370;2023-02-28T15:48:22;21.20;;;10.23;;
36931;SDS011;22847;42.654;23.370;2023-02-28T15:50:53;19.58;;;9.05;;
36931;SDS011;22847;42.654;23.370;2023-02-28T15:53:32;17.80;;;9.13;;
36931;SDS011;22847;42.654;23.370;2023-02-28T15:56:01;18.67;;;9.20;;
36931;SDS011;22847;42.654;23.370;2023-02-28T15:58:29;19.35;;;8.85;;
36931;SDS011;22847;42.654;23.370;2023-02-28T16:01:06;25.88;;;9.80;;
36931;SDS011;22847;42.654;23.370;2023-02-28T16:03:45;29.45;;;10.30;;
36931;SDS011;22847;42.654;23.370;2023-02-28T16:09:18;21.73;;;9.48;;
36931;SDS011;22847;42.654;23.370;2023-02-28T16:11:47;18.38;;;9.68;;
36931;SDS011;22847;42.654;23.370;2023-02-28T16:14:18;23.80;;;9.57;;
36931;SDS011;22847;42.654;23.370;2023-02-28T16:16:48;18.17;;;9.98;;
36931;SDS011;22847;42.654;23.370;2023-02-28T16:19:15;14.57;;;8.75;;
36931;SDS011;22847;42.654;23.370;2023-02-28T16:21:41;17.98;;;8.40;;
36931;SDS011;22847;42.654;23.370;2023-02-28T16:24:07;20.13;;;8.32;;
36931;SDS011;22847;42.654;23.370;2023-02-28T16:26:32;16.55;;;8.68;;
36931;SDS011;22847;42.654;23.370;2023-02-28T16:28:59;15.20;;;7.93;;
36931;SDS011;22847;42.654;23.370;2023-02-28T16:31:27;18.95;;;7.57;;
36931;SDS011;22847;42.654;23.370;2023-02-28T16:33:52;16.65;;;8.02;;
36931;SDS011;22847;42.654;23.370;2023-02-28T16:36:19;16.92;;;7.57;;
36931;SDS011;22847;42.654;23.370;2023-02-28T16:38:47;16.80;;;7.03;;
36931;SDS011;22847;42.654;23.370;2023-02-28T16:41:19;18.40;;;7.80;;
36931;SDS011;22847;42.654;23.370;2023-02-28T16:43:46;13.32;;;7.10;;
36931;SDS011;22847;42.654;23.370;2023-02-28T16:46:14;13.55;;;6.85;;
36931;SDS011;22847;42.654;23.370;2023-02-28T16:48:40;16.38;;;7.10;;
36931;SDS011;22847;42.654;23.370;2023-02-28T16:51:06;16.58;;;6.72;;
36931;SDS011;22847;42.654;23.370;2023-02-28T16:53:36;13.88;;;6.82;;
36931;SDS011;22847;42.654;23.370;2023-02-28T16:56:02;14.20;;;6.47;;
36931;SDS011;22847;42.654;23.370;2023-02-28T16:58:27;12.77;;;6.05;;
36931;SDS011;22847;42.654;23.370;2023-02-28T17:00:53;14.38;;;6.55;;
36931;SDS011;22847;42.654;23.370;2023-02-28T17:03:25;13.48;;;6.78;;
36931;SDS011;22847;42.654;23.370;2023-02-28T17:05:52;13.45;;;6.25;;
36931;SDS011;22847;42.654;23.370;2023-02-28T17:08:18;11.82;;;6.53;;
36931;SDS011;22847;42.654;23.370;2023-02-28T17:10:44;15.30;;;5.95;;
36931;SDS011;22847;42.654;23.370;2023-02-28T17:13:10;13.07;;;5.97;;
36931;SDS011;22847;42.654;23.370;2023-02-28T17:15:35;11.77;;;5.45;;